Time;durP1;ratioP1;P1;durP2;ratioP2;P2;SDS_P1;SDS_P2;PMS_P1;PMS_P2;Temp;Humidity;BMP_temperature;BMP_pressure;BME280_temperature;BME280_humidity;BME280_pressure;Samples;Min_cycle;Max_cycle;Signal;HPM_P1;HPM_P2
2021/10/01 00:01:33;;;;;;;3.40;2.30;;;5.90;99.90;;;;;;5049150;28;20179;-59
2021/10/01 00:03:58;;;;;;;4.53;2.43;;;5.90;99.90;;;;;;5042603;28;20222;-59
2021/10/01 00:06:24;;;;;;;3.33;2.10;;;5.90;99.90;;;;;;5046433;28;20266;-59
2021/10/01 00:08:50;;;;;;;4.13;2.40;;;5.90;99.90;;;;;;5038997;28;20195;-59
2021/10/01 00:11:15;;;;;;;2.37;2.17;;;5.90;99.90;;;;;;5050286;28;20171;-59
2021/10/01 00:13:41;;;;;;;4.40;2.30;;;5.90;99.90;;;;;;5050050;28;20667;-59
2021/10/01 00:16:07;;;;;;;4.37;2.43;;;5.90;99.90;;;;;;5049938;28;20272;-58
2021/10/01 00:18:32;;;;;;;2.67;2.47;;;5.90;99.90;;;;;;5031464;28;20255;-58
2021/10/01 00:20:58;;;;;;;2.00;1.90;;;5.90;99.90;;;;;;5036361;28;20178;-59
2021/10/01 00:23:24;;;;;;;3.17;2.70;;;5.80;99.90;;;;;;5046583;28;20203;-59
2021/10/01 00:25:50;;;;;;;2.33;2.10;;;5.80;99.90;;;;;;5050311;28;20171;-59
2021/10/01 00:28:16;;;;;;;3.20;2.50;;;5.80;99.90;;;;;;5049808;28;20491;-59
2021/10/01 00:30:42;;;;;;;2.53;1.90;;;5.70;99.90;;;;;;5048895;28;20194;-59
2021/10/01 00:33:07;;;;;;;2.43;2.23;;;5.70;99.90;;;;;;5032097;28;20284;-59
2021/10/01 00:35:33;;;;;;;7.30;2.33;;;5.70;99.90;;;;;;5048273;28;20802;-59
2021/10/01 00:37:59;;;;;;;3.23;2.50;;;5.70;99.90;;;;;;5013749;28;20190;-59
2021/10/01 00:40:26;;;;;;;3.27;2.40;;;5.70;99.90;;;;;;5031349;28;20183;-59
2021/10/01 00:42:52;;;;;;;2.40;2.20;;;5.70;99.90;;;;;;5047805;28;20300;-59
2021/10/01 00:45:17;;;;;;;8.00;2.67;;;5.60;99.90;;;;;;5050781;28;20481;-58
2021/10/01 00:47:43;;;;;;;2.80;2.60;;;5.60;99.90;;;;;;5050988;28;20176;-59
2021/10/01 00:50:09;;;;;;;4.43;2.40;;;5.60;99.90;;;;;;5039302;28;20307;-61
2021/10/01 00:52:35;;;;;;;5.27;2.90;;;5.60;99.90;;;;;;5034212;28;20176;-59
2021/10/01 00:55:02;;;;;;;2.70;2.50;;;5.60;99.90;;;;;;5050527;28;20424;-59
2021/10/01 00:57:28;;;;;;;3.07;2.10;;;5.60;99.90;;;;;;5049707;28;20190;-59
2021/10/01 00:59:53;;;;;;;4.37;2.43;;;5.50;99.90;;;;;;5049072;28;20715;-58
2021/10/01 01:02:19;;;;;;;4.77;2.63;;;5.50;99.90;;;;;;5049786;28;20182;-59
2021/10/01 01:04:45;;;;;;;3.50;2.50;;;5.50;99.90;;;;;;5040251;28;20248;-59
2021/10/01 01:07:27;;;;;;;2.77;2.57;;;5.50;99.90;;;;;;5049817;28;20421;-59
2021/10/01 01:09:55;;;;;;;3.23;2.70;;;5.50;99.90;;;;;;5045193;28;20488;-60
2021/10/01 01:12:27;;;;;;;3.57;2.27;;;5.40;99.90;;;;;;5051344;28;20483;-59
2021/10/01 01:15:06;;;;;;;3.13;2.57;;;5.40;99.90;;;;;;5049671;28;21100;-59
2021/10/01 01:17:48;;;;;;;3.53;2.57;;;5.40;99.90;;;;;;5049196;28;20516;-59
2021/10/01 01:20:37;;;;;;;2.30;2.10;;;5.40;99.90;;;;;;5037274;28;20440;-59
2021/10/01 01:23:41;;;;;;;4.13;2.50;;;5.40;99.90;;;;;;5048006;28;20804;-59
2021/10/01 01:26:45;;;;;;;2.87;2.10;;;5.40;99.90;;;;;;5021004;28;20806;-59
2021/10/01 01:29:27;;;;;;;3.17;2.33;;;5.40;99.90;;;;;;4983436;28;20578;-59
2021/10/01 01:31:55;;;;;;;2.80;2.50;;;5.30;99.90;;;;;;5049876;28;20505;-58
2021/10/01 01:34:31;;;;;;;4.63;2.60;;;5.30;99.90;;;;;;5048863;28;20473;-58
2021/10/01 01:37:03;;;;;;;3.87;2.77;;;5.30;99.90;;;;;;5048169;28;20723;-59
2021/10/01 01:39:30;;;;;;;4.83;2.70;;;5.30;99.90;;;;;;5036031;28;20436;-60
2021/10/01 01:41:59;;;;;;;2.60;2.30;;;5.30;99.90;;;;;;5035106;28;20444;-60
2021/10/01 01:44:27;;;;;;;2.40;2.20;;;5.20;99.90;;;;;;5027154;28;20449;-59
2021/10/01 01:46:55;;;;;;;7.53;2.47;;;5.20;99.90;;;;;;5052590;28;20421;-59
2021/10/01 01:49:21;;;;;;;5.47;2.73;;;5.20;99.90;;;;;;5045711;28;20454;-59
2021/10/01 01:51:48;;;;;;;2.97;2.77;;;5.20;99.90;;;;;;5048488;28;20468;-59
2021/10/01 01:54:15;;;;;;;2.60;2.40;;;5.10;99.90;;;;;;5049497;28;20831;-59
2021/10/01 01:56:41;;;;;;;3.43;2.67;;;5.10;99.90;;;;;;5032199;28;20776;-59
2021/10/01 01:59:08;;;;;;;5.80;2.50;;;5.10;99.90;;;;;;5020373;28;20660;-59
2021/10/01 02:01:35;;;;;;;7.27;2.83;;;5.10;99.90;;;;;;5043802;28;20438;-58
2021/10/01 02:04:01;;;;;;;7.80;2.70;;;5.10;99.90;;;;;;5043638;28;20453;-59
2021/10/01 02:06:30;;;;;;;9.60;3.00;;;5.00;99.90;;;;;;5046807;28;20454;-59
2021/10/01 02:08:58;;;;;;;3.23;2.50;;;5.00;99.90;;;;;;5025784;28;20449;-59
2021/10/01 02:11:25;;;;;;;3.07;2.73;;;5.00;99.90;;;;;;5042427;28;20460;-59
2021/10/01 02:13:52;;;;;;;2.73;2.33;;;5.00;99.90;;;;;;5038869;28;20452;-59
2021/10/01 02:16:19;;;;;;;8.63;2.50;;;5.00;99.90;;;;;;5043664;28;20437;-59
2021/10/01 02:18:47;;;;;;;2.83;2.57;;;4.90;99.90;;;;;;5051419;28;20440;-59
2021/10/01 02:21:15;;;;;;;2.40;2.23;;;4.90;99.90;;;;;;5053303;28;20452;-59
2021/10/01 02:23:41;;;;;;;2.80;2.60;;;4.90;99.90;;;;;;5052335;28;20457;-59
2021/10/01 02:29:14;;;;;;;3.73;2.43;;;4.90;99.90;;;;;;5049202;28;20571;-59
2021/10/01 02:32:06;;;;;;;3.80;2.40;;;4.90;99.90;;;;;;5034092;28;20453;-61
2021/10/01 02:34:37;;;;;;;3.20;2.70;;;4.90;99.90;;;;;;5049024;28;20484;-60
2021/10/01 02:37:05;;;;;;;2.67;2.47;;;4.80;99.90;;;;;;5051097;28;20444;-58
2021/10/01 02:39:31;;;;;;;3.43;2.43;;;4.80;99.90;;;;;;5047931;28;20417;-59
2021/10/01 02:41:57;;;;;;;5.00;2.80;;;4.80;99.90;;;;;;5052461;28;20538;-59
2021/10/01 02:44:23;;;;;;;6.80;2.37;;;4.80;99.90;;;;;;5052756;28;20979;-59
2021/10/01 02:46:49;;;;;;;2.50;2.30;;;4.80;99.90;;;;;;5074357;22;20231;-56
2021/10/01 02:49:14;;;;;;;5.00;2.70;;;4.80;99.90;;;;;;5030198;28;20515;-57
2021/10/01 02:51:47;;;;;;;4.97;2.30;;;4.80;99.90;;;;;;5012316;28;20255;-57
2021/10/01 02:54:16;;;;;;;5.70;2.70;;;4.80;99.90;;;;;;5030008;28;20266;-56
2021/10/01 02:56:59;;;;;;;3.93;2.37;;;4.80;99.90;;;;;;5031939;28;20449;-58
2021/10/01 02:59:28;;;;;;;3.57;2.53;;;4.70;99.90;;;;;;5031397;28;20501;-58
2021/10/01 03:01:56;;;;;;;4.00;2.63;;;4.70;99.90;;;;;;5031588;28;20414;-56
2021/10/01 03:04:24;;;;;;;2.53;2.10;;;4.70;99.90;;;;;;5028350;28;20423;-58
2021/10/01 03:06:51;;;;;;;4.97;2.83;;;4.70;99.90;;;;;;5028051;28;20527;-57
2021/10/01 03:09:20;;;;;;;3.23;2.87;;;4.70;99.90;;;;;;5030093;28;20454;-60
2021/10/01 03:11:47;;;;;;;3.37;2.80;;;4.70;99.90;;;;;;5029548;28;20453;-58
2021/10/01 03:14:15;;;;;;;4.00;2.87;;;4.70;99.90;;;;;;5028627;28;20410;-58
2021/10/01 03:16:42;;;;;;;2.30;2.10;;;4.60;99.90;;;;;;5014711;28;20450;-59
2021/10/01 03:19:09;;;;;;;4.50;2.60;;;4.60;99.90;;;;;;5019871;28;20524;-59
2021/10/01 03:21:36;;;;;;;4.70;2.40;;;4.60;99.90;;;;;;5003452;28;20438;-58
2021/10/01 03:24:03;;;;;;;3.20;2.40;;;4.60;99.90;;;;;;5019160;28;20510;-59
2021/10/01 03:26:29;;;;;;;2.80;2.53;;;4.50;99.90;;;;;;5015431;28;20516;-59
2021/10/01 03:28:55;;;;;;;5.00;3.07;;;4.50;99.90;;;;;;5020035;28;20470;-59
2021/10/01 03:31:24;;;;;;;2.47;2.20;;;4.50;99.90;;;;;;5015572;28;20435;-58
2021/10/01 03:33:50;;;;;;;4.00;2.60;;;4.50;99.90;;;;;;5016489;28;20171;-59
2021/10/01 03:36:16;;;;;;;6.83;2.60;;;4.50;99.90;;;;;;5015737;28;20534;-59
2021/10/01 03:38:45;;;;;;;5.43;2.40;;;4.50;99.90;;;;;;5014967;28;20567;-60
2021/10/01 03:41:11;;;;;;;3.47;2.40;;;4.40;99.90;;;;;;5016549;28;20558;-57
2021/10/01 03:43:37;;;;;;;4.30;3.07;;;4.40;99.90;;;;;;5020518;28;20521;-57
2021/10/01 03:46:02;;;;;;;6.83;2.93;;;4.40;99.90;;;;;;5017844;28;20269;-56
2021/10/01 03:48:28;;;;;;;2.70;2.50;;;4.40;99.90;;;;;;5014795;28;20203;-57
2021/10/01 03:50:54;;;;;;;2.97;2.50;;;4.40;99.90;;;;;;5015193;28;20196;-57
2021/10/01 03:53:20;;;;;;;4.83;3.20;;;4.40;99.90;;;;;;5019550;28;20184;-55
2021/10/01 03:55:45;;;;;;;3.10;2.83;;;4.40;99.90;;;;;;5021736;28;20214;-55
2021/10/01 03:58:11;;;;;;;2.70;2.50;;;4.40;99.90;;;;;;5023768;28;20663;-58
2021/10/01 04:00:37;;;;;;;4.83;2.80;;;4.40;99.90;;;;;;5019435;28;20204;-55
2021/10/01 04:03:03;;;;;;;3.47;2.73;;;4.40;99.90;;;;;;5020928;28;20437;-53
2021/10/01 04:05:29;;;;;;;8.23;2.87;;;4.30;99.90;;;;;;5018856;28;20176;-54
2021/10/01 04:07:54;;;;;;;5.57;2.60;;;4.30;99.90;;;;;;5022681;28;20523;-54
2021/10/01 04:10:20;;;;;;;4.63;3.57;;;4.30;99.90;;;;;;5023441;28;20222;-55
2021/10/01 04:12:46;;;;;;;5.63;2.80;;;4.20;99.90;;;;;;5018201;28;20223;-54
2021/10/01 04:15:11;;;;;;;14.50;3.70;;;4.20;99.90;;;;;;5019447;28;20191;-54
2021/10/01 04:17:37;;;;;;;5.87;3.13;;;4.20;99.90;;;;;;4998920;28;20199;-57
2021/10/01 04:20:04;;;;;;;5.23;2.80;;;4.20;99.90;;;;;;5014572;28;20214;-57
2021/10/01 04:22:30;;;;;;;4.20;2.80;;;4.20;99.90;;;;;;5018996;28;20177;-58
2021/10/01 04:24:56;;;;;;;4.10;3.00;;;4.20;99.90;;;;;;5015729;28;20505;-58
2021/10/01 04:27:21;;;;;;;5.07;3.10;;;4.10;99.90;;;;;;5018111;28;20199;-58
2021/10/01 04:29:47;;;;;;;4.23;2.93;;;4.10;99.90;;;;;;5014252;28;20208;-58
2021/10/01 04:32:13;;;;;;;3.73;2.90;;;4.10;99.90;;;;;;5016405;28;20264;-56
2021/10/01 04:37:34;;;;;;;13.53;3.03;;;4.00;99.90;;;;;;5009368;28;20212;-58
2021/10/01 04:40:00;;;;;;;5.17;3.07;;;4.00;99.90;;;;;;5019044;28;20561;-58
2021/10/01 04:42:25;;;;;;;4.13;3.00;;;4.00;99.90;;;;;;5009798;28;20218;-55
2021/10/01 04:44:51;;;;;;;3.80;2.67;;;4.00;99.90;;;;;;5015877;28;20434;-54
2021/10/01 04:47:17;;;;;;;5.60;2.97;;;4.00;99.90;;;;;;5023281;28;20213;-55
2021/10/01 04:49:42;;;;;;;4.37;3.00;;;4.00;99.90;;;;;;5017087;28;20690;-58
2021/10/01 04:52:08;;;;;;;4.43;2.80;;;3.90;99.90;;;;;;5015603;28;20180;-60
2021/10/01 04:54:34;;;;;;;4.00;2.97;;;3.90;99.90;;;;;;5022370;28;20197;-58
2021/10/01 04:57:00;;;;;;;2.60;2.40;;;3.90;99.90;;;;;;5007356;28;20654;-62
2021/10/01 04:59:25;;;;;;;7.73;2.90;;;3.90;99.90;;;;;;5019709;28;20176;-61
2021/10/01 05:01:51;;;;;;;3.50;2.60;;;3.90;99.90;;;;;;5015801;28;20195;-59
2021/10/01 05:04:19;;;;;;;4.73;3.07;;;3.90;99.90;;;;;;5015504;28;20189;-60
2021/10/01 05:06:45;;;;;;;5.10;3.00;;;3.90;99.90;;;;;;5014611;28;20458;-61
2021/10/01 05:09:11;;;;;;;6.60;2.73;;;3.90;99.90;;;;;;5012257;28;20625;-57
2021/10/01 05:11:36;;;;;;;3.23;2.93;;;3.90;99.90;;;;;;5019329;28;20692;-59
2021/10/01 05:14:02;;;;;;;5.43;3.03;;;3.90;99.90;;;;;;5023108;28;20178;-60
2021/10/01 05:16:28;;;;;;;3.60;3.20;;;3.90;99.90;;;;;;5023361;28;20198;-60
2021/10/01 05:18:54;;;;;;;8.20;3.30;;;3.90;99.90;;;;;;5023202;28;20262;-61
2021/10/01 05:21:19;;;;;;;3.77;3.23;;;3.90;99.90;;;;;;5021411;28;20518;-59
2021/10/01 05:23:45;;;;;;;4.60;3.30;;;4.00;99.90;;;;;;5023117;28;20238;-60
2021/10/01 05:26:11;;;;;;;6.30;2.80;;;3.90;99.90;;;;;;5016007;28;20199;-60
2021/10/01 05:28:36;;;;;;;5.83;3.20;;;4.00;99.90;;;;;;5029535;28;20199;-61
2021/10/01 05:31:02;;;;;;;5.37;3.57;;;3.90;99.90;;;;;;5026884;28;20175;-60
2021/10/01 05:33:28;;;;;;;6.97;3.03;;;3.90;99.90;;;;;;5019317;28;20168;-60
2021/10/01 05:35:53;;;;;;;5.40;3.03;;;3.90;99.90;;;;;;5017619;28;20191;-61
2021/10/01 05:38:19;;;;;;;5.17;3.50;;;3.90;99.90;;;;;;5012451;28;20183;-61
2021/10/01 05:40:45;;;;;;;6.50;3.90;;;3.90;99.90;;;;;;5023686;28;20187;-60
2021/10/01 05:43:12;;;;;;;5.43;3.50;;;3.90;99.90;;;;;;5023269;28;20433;-58
2021/10/01 05:45:39;;;;;;;3.83;2.80;;;3.80;99.90;;;;;;5026110;28;20573;-60
2021/10/01 05:48:06;;;;;;;4.47;3.50;;;3.90;99.90;;;;;;5024111;28;20472;-61
2021/10/01 05:50:34;;;;;;;9.33;3.70;;;3.80;99.90;;;;;;5014498;28;20473;-61
2021/10/01 05:53:24;;;;;;;4.53;3.90;;;3.80;99.90;;;;;;5021992;28;20436;-62
2021/10/01 05:55:45;;;;;;;6.63;3.60;;;3.80;99.90;;;;;;5027279;28;20453;-61
2021/10/01 05:58:12;;;;;;;4.53;3.60;;;3.90;99.90;;;;;;5026069;28;20471;-59
2021/10/01 06:00:38;;;;;;;4.03;3.60;;;3.90;99.90;;;;;;5023423;28;20238;-61
2021/10/01 06:03:03;;;;;;;5.53;3.80;;;3.90;99.90;;;;;;5023065;28;20853;-60
2021/10/01 06:05:29;;;;;;;7.17;3.30;;;3.90;99.90;;;;;;5024846;28;20186;-62
2021/10/01 06:07:55;;;;;;;9.80;3.67;;;3.90;99.90;;;;;;5026815;28;20662;-59
2021/10/01 06:10:20;;;;;;;3.93;2.83;;;3.90;99.90;;;;;;5009289;28;20571;-60
2021/10/01 06:12:46;;;;;;;6.30;3.50;;;3.90;99.90;;;;;;5026567;28;20221;-62
2021/10/01 06:15:12;;;;;;;3.90;3.50;;;3.90;99.90;;;;;;5028344;28;20186;-60
2021/10/01 06:17:38;;;;;;;4.60;3.30;;;3.90;99.90;;;;;;5024668;28;20194;-60
2021/10/01 06:20:06;;;;;;;6.23;3.90;;;4.00;99.90;;;;;;5027957;28;20423;-61
2021/10/01 06:22:32;;;;;;;5.23;3.30;;;4.00;99.90;;;;;;5016197;28;20568;-60
2021/10/01 06:24:57;;;;;;;3.60;3.03;;;4.10;99.90;;;;;;5028095;28;20426;-60
2021/10/01 06:27:23;;;;;;;4.27;2.80;;;4.10;99.90;;;;;;5026691;28;20438;-61
2021/10/01 06:29:50;;;;;;;6.67;3.53;;;4.20;99.90;;;;;;5023298;28;20583;-62
2021/10/01 06:32:16;;;;;;;7.80;5.53;;;4.20;99.90;;;;;;5019858;28;20175;-61
2021/10/01 06:34:42;;;;;;;4.03;3.60;;;4.30;99.90;;;;;;5014166;28;20431;-61
2021/10/01 06:37:07;;;;;;;4.10;3.23;;;4.40;99.90;;;;;;5026563;28;20739;-61
2021/10/01 06:39:33;;;;;;;3.23;2.80;;;4.40;99.90;;;;;;5022678;28;20172;-61
2021/10/01 06:41:58;;;;;;;9.37;3.10;;;4.50;99.90;;;;;;5018723;28;20181;-59
2021/10/01 06:44:28;;;;;;;3.00;2.70;;;4.60;99.90;;;;;;5027955;28;20202;-58
2021/10/01 06:47:03;;;;;;;2.63;2.43;;;4.60;99.90;;;;;;5021004;28;20203;-59
2021/10/01 08:19:22;;;;;;;5.03;4.10;;;8.00;99.90;;;;;;5027146;28;20460;-66
2021/10/01 08:21:50;;;;;;;6.03;3.97;;;8.10;99.90;;;;;;5028828;28;20989;-65
2021/10/01 08:24:16;;;;;;;7.77;3.80;;;8.30;99.90;;;;;;5020057;28;20434;-63
2021/10/01 08:26:43;;;;;;;8.23;4.50;;;8.40;99.90;;;;;;5027834;28;20497;-64
2021/10/01 08:29:09;;;;;;;5.30;3.97;;;8.50;99.90;;;;;;5025589;28;20450;-64
2021/10/01 08:31:35;;;;;;;7.70;3.73;;;8.70;99.90;;;;;;5030771;28;20443;-65
2021/10/01 08:34:00;;;;;;;18.60;4.80;;;8.80;99.90;;;;;;5017570;28;22005;-67
2021/10/01 08:36:26;;;;;;;4.53;3.80;;;8.90;99.90;;;;;;5028162;28;20192;-63
2021/10/01 08:38:52;;;;;;;4.57;3.50;;;9.10;99.90;;;;;;5019446;28;20271;-66
2021/10/01 08:41:18;;;;;;;7.60;5.03;;;9.20;99.90;;;;;;5021572;28;20666;-67
2021/10/01 08:43:44;;;;;;;6.90;3.77;;;9.30;99.90;;;;;;5027786;28;20678;-67
2021/10/01 08:46:11;;;;;;;6.07;3.40;;;9.50;99.90;;;;;;5042775;22;20261;-62
2021/10/01 08:48:39;;;;;;;8.13;4.70;;;9.70;99.90;;;;;;4989401;28;20460;-62
2021/10/01 08:51:07;;;;;;;4.93;3.93;;;9.80;99.90;;;;;;4991734;28;20475;-62
2021/10/01 08:53:34;;;;;;;7.50;4.20;;;10.00;99.90;;;;;;4981085;28;20809;-62
2021/10/01 08:56:00;;;;;;;10.47;4.90;;;10.20;99.90;;;;;;4982409;28;20448;-62
2021/10/01 08:58:27;;;;;;;16.30;4.57;;;10.40;99.90;;;;;;4962942;28;20498;-62
2021/10/01 09:00:53;;;;;;;10.93;4.87;;;10.50;99.90;;;;;;4967530;28;20418;-62
2021/10/01 09:03:19;;;;;;;6.80;4.47;;;10.70;99.90;;;;;;4964273;28;20433;-62
2021/10/01 09:05:45;;;;;;;11.40;5.30;;;10.90;99.90;;;;;;4970920;28;20420;-63
2021/10/01 09:08:13;;;;;;;5.67;3.97;;;11.10;99.90;;;;;;4970365;28;20472;-63
2021/10/01 09:10:38;;;;;;;9.23;4.43;;;11.30;99.90;;;;;;4962920;28;20179;-62
2021/10/01 09:13:07;;;;;;;5.93;4.07;;;11.40;99.90;;;;;;4971287;28;20968;-62
2021/10/01 09:15:40;;;;;;;6.60;4.50;;;11.60;99.90;;;;;;4970929;28;20568;-63
2021/10/01 09:18:06;;;;;;;10.83;4.10;;;11.80;99.90;;;;;;4971154;28;20805;-63
2021/10/01 09:20:32;;;;;;;14.27;4.73;;;12.00;99.90;;;;;;4973308;28;20435;-63
2021/10/01 09:23:16;;;;;;;5.07;4.10;;;12.20;99.90;;;;;;4950572;28;20212;-62
2021/10/01 09:25:42;;;;;;;10.37;4.43;;;12.40;99.90;;;;;;4973627;28;20196;-62
2021/10/01 09:28:12;;;;;;;13.33;5.03;;;12.60;99.00;;;;;;4990653;28;20474;-63
2021/10/01 09:30:49;;;;;;;7.40;4.33;;;12.80;98.80;;;;;;4975611;28;20440;-62
2021/10/01 09:33:19;;;;;;;5.40;4.20;;;12.90;95.60;;;;;;4963482;28;20420;-63
2021/10/01 09:35:46;;;;;;;8.13;4.60;;;13.10;93.90;;;;;;4959370;28;20518;-63
2021/10/01 09:38:20;;;;;;;5.27;3.80;;;13.20;93.60;;;;;;4964591;28;21129;-63
2021/10/01 09:41:17;;;;;;;6.83;4.23;;;13.40;95.90;;;;;;4982425;28;20452;-63
2021/10/01 09:43:43;;;;;;;19.03;4.30;;;13.70;93.30;;;;;;4966235;28;20424;-63
2021/10/01 09:46:15;;;;;;;8.40;3.33;;;13.90;90.70;;;;;;4973209;28;21096;-62
2021/10/01 09:48:41;;;;;;;7.63;3.30;;;14.10;90.10;;;;;;4963884;28;21028;-62
2021/10/01 09:51:17;;;;;;;37.13;5.87;;;14.30;90.20;;;;;;4970834;28;20445;-63
2021/10/01 09:53:47;;;;;;;5.03;3.03;;;14.50;88.30;;;;;;4969491;28;21473;-63
2021/10/01 09:56:20;;;;;;;4.60;2.53;;;14.70;87.30;;;;;;4968010;28;20472;-63
2021/10/01 09:59:03;;;;;;;6.83;3.10;;;14.90;82.30;;;;;;4976823;28;20437;-64
2021/10/01 10:01:29;;;;;;;7.47;2.80;;;15.00;79.30;;;;;;4958874;28;20430;-63
2021/10/01 10:03:55;;;;;;;4.40;2.90;;;15.10;79.80;;;;;;4961416;28;20531;-63
2021/10/01 10:06:20;;;;;;;4.30;2.70;;;15.30;79.30;;;;;;4956652;28;20221;-62
2021/10/01 10:08:46;;;;;;;6.87;2.90;;;15.40;71.80;;;;;;4968718;28;20241;-62
2021/10/01 10:11:18;;;;;;;4.30;2.90;;;15.50;75.20;;;;;;4974797;28;20170;-62
2021/10/01 10:13:49;;;;;;;4.07;2.63;;;15.60;69.50;;;;;;4972043;28;20981;-58
2021/10/01 10:16:23;;;;;;;4.53;2.60;;;15.70;71.10;;;;;;4957104;28;20451;-58
2021/10/01 10:19:00;;;;;;;3.70;2.40;;;15.80;67.30;;;;;;4975052;28;20420;-59
2021/10/01 10:21:26;;;;;;;5.00;2.50;;;15.80;66.30;;;;;;4981208;28;20464;-59
2021/10/01 10:23:53;;;;;;;3.70;2.67;;;15.80;66.60;;;;;;4969346;28;20461;-59
2021/10/01 10:26:19;;;;;;;3.53;2.50;;;15.90;66.60;;;;;;4969850;28;20510;-58
2021/10/01 10:28:46;;;;;;;3.87;2.40;;;16.00;67.00;;;;;;4980506;28;20487;-59
2021/10/01 10:31:14;;;;;;;6.97;2.73;;;16.20;66.10;;;;;;4983562;28;20495;-58
2021/10/01 10:33:44;;;;;;;3.60;2.20;;;16.40;64.80;;;;;;4965853;28;20431;-59
2021/10/01 10:36:29;;;;;;;2.63;2.30;;;16.50;66.80;;;;;;4955994;28;20516;-58
2021/10/01 10:38:57;;;;;;;3.10;2.40;;;16.80;68.80;;;;;;4965720;28;20527;-58
2021/10/01 10:41:28;;;;;;;7.77;2.73;;;17.10;66.40;;;;;;4950298;28;20424;-58
2021/10/01 10:43:55;;;;;;;4.70;2.37;;;17.30;68.60;;;;;;4965424;28;20434;-58
2021/10/01 10:46:35;;;;;;;6.10;2.90;;;17.60;66.60;;;;;;4962390;28;20878;-58
2021/10/01 10:49:24;;;;;;;4.63;2.30;;;17.80;63.20;;;;;;4971059;28;20468;-59
2021/10/01 10:52:13;;;;;;;4.23;2.90;;;18.00;60.50;;;;;;4972921;28;20429;-58
2021/10/01 10:55:09;;;;;;;10.00;3.63;;;18.00;59.80;;;;;;4972445;28;20578;-59
2021/10/01 10:57:37;;;;;;;4.47;2.63;;;18.10;59.60;;;;;;4968310;28;20481;-58
2021/10/01 11:00:42;;;;;;;5.17;2.40;;;18.20;58.90;;;;;;4971918;28;20429;-58
2021/10/01 11:03:28;;;;;;;5.73;2.90;;;18.30;58.60;;;;;;4957947;28;20451;-58
2021/10/01 11:06:09;;;;;;;6.97;3.97;;;18.50;58.70;;;;;;4951920;28;20433;-58
2021/10/01 11:08:46;;;;;;;6.47;3.07;;;18.70;56.80;;;;;;4953511;28;20917;-59
2021/10/01 11:11:38;;;;;;;3.87;2.80;;;18.90;56.70;;;;;;4971619;28;20527;-60
2021/10/01 11:14:17;;;;;;;5.90;3.00;;;19.30;56.60;;;;;;4962894;28;21116;-60
2021/10/01 11:16:52;;;;;;;3.53;2.60;;;19.60;55.10;;;;;;4969884;28;20449;-60
2021/10/01 11:19:34;;;;;;;3.30;2.50;;;20.00;55.00;;;;;;4965841;28;20958;-60
2021/10/01 11:21:59;;;;;;;4.10;2.63;;;20.40;54.90;;;;;;4971162;28;20437;-60
2021/10/01 11:24:25;;;;;;;7.80;3.67;;;20.80;53.60;;;;;;4983298;28;20428;-61
2021/10/01 11:26:55;;;;;;;4.70;2.80;;;20.80;51.50;;;;;;4963939;28;20257;-60
2021/10/01 11:29:26;;;;;;;9.27;3.30;;;20.90;51.40;;;;;;4975190;28;20472;-61
2021/10/01 11:31:58;;;;;;;6.03;3.60;;;21.30;52.70;;;;;;4969987;28;20841;-61
2021/10/01 11:34:36;;;;;;;5.37;2.97;;;21.50;52.70;;;;;;4960536;28;20511;-61
2021/10/01 11:37:01;;;;;;;3.70;2.87;;;21.50;49.70;;;;;;4969262;28;20452;-61
2021/10/01 11:39:27;;;;;;;8.00;3.20;;;21.40;50.10;;;;;;4965790;28;20944;-61
2021/10/01 11:41:53;;;;;;;3.70;2.80;;;21.30;49.90;;;;;;4966951;28;20182;-61
2021/10/01 11:44:24;;;;;;;5.47;2.90;;;21.40;50.70;;;;;;4963184;28;20305;-60
2021/10/01 11:46:50;;;;;;;8.37;2.80;;;21.50;50.60;;;;;;4960495;28;20851;-61
2021/10/01 11:49:19;;;;;;;5.33;2.90;;;21.70;51.10;;;;;;4964801;28;20505;-62
2021/10/01 11:52:09;;;;;;;5.83;2.90;;;21.70;49.80;;;;;;4966856;28;20464;-59
2021/10/01 11:54:36;;;;;;;4.53;2.80;;;21.50;49.40;;;;;;4969548;28;20449;-62
2021/10/01 11:57:06;;;;;;;3.47;2.50;;;21.40;49.80;;;;;;4981047;28;20448;-62
2021/10/01 11:59:58;;;;;;;7.77;3.20;;;21.50;51.10;;;;;;4977643;28;21106;-62
2021/10/01 12:02:38;;;;;;;4.40;2.73;;;21.60;51.10;;;;;;4972343;28;20846;-62
2021/10/01 12:05:33;;;;;;;11.50;2.87;;;21.70;49.90;;;;;;4967211;28;20926;-60
2021/10/01 12:08:04;;;;;;;5.80;3.20;;;21.90;49.30;;;;;;4965964;28;20445;-62
2021/10/01 12:10:35;;;;;;;2.83;2.40;;;21.90;49.70;;;;;;4968992;28;20464;-61
2021/10/01 12:13:14;;;;;;;3.60;2.80;;;22.00;49.50;;;;;;4971708;28;20972;-61
2021/10/01 12:15:40;;;;;;;4.97;2.80;;;22.10;49.20;;;;;;4985806;28;20962;-61
2021/10/01 12:18:07;;;;;;;3.63;2.60;;;22.10;49.30;;;;;;4970518;28;20449;-62
2021/10/01 12:20:46;;;;;;;4.33;2.80;;;22.20;49.40;;;;;;4972022;28;20319;-62
2021/10/01 12:23:18;;;;;;;3.87;2.50;;;22.30;49.50;;;;;;4969294;28;20429;-62
2021/10/01 12:25:44;;;;;;;6.67;3.10;;;22.40;49.10;;;;;;4970197;28;20521;-61
2021/10/01 12:28:09;;;;;;;6.33;2.43;;;22.40;48.90;;;;;;4970877;28;20682;-62
2021/10/01 12:30:35;;;;;;;4.80;2.60;;;22.40;49.30;;;;;;4977224;28;20572;-62
2021/10/01 12:33:01;;;;;;;3.30;2.07;;;22.50;49.60;;;;;;4965910;28;20266;-62
2021/10/01 12:35:26;;;;;;;4.20;2.70;;;22.60;49.00;;;;;;4960575;28;21175;-62
2021/10/01 12:37:52;;;;;;;4.50;2.70;;;22.60;48.40;;;;;;4967736;28;20685;-62
2021/10/01 12:40:18;;;;;;;4.93;2.70;;;22.60;48.30;;;;;;4963922;28;20178;-61
2021/10/01 12:42:43;;;;;;;4.87;2.23;;;22.60;48.70;;;;;;4936053;28;20213;-63
2021/10/01 12:45:12;;;;;;;3.60;2.40;;;22.70;48.40;;;;;;4964256;28;20560;-61
2021/10/01 12:47:40;;;;;;;4.30;2.40;;;22.70;49.20;;;;;;4963595;28;20205;-63
2021/10/01 12:50:10;;;;;;;5.00;2.60;;;22.90;49.00;;;;;;4968818;28;20624;-62
2021/10/01 12:52:40;;;;;;;4.30;2.67;;;23.10;49.40;;;;;;4973080;28;20584;-62
2021/10/01 12:55:12;;;;;;;4.70;3.17;;;23.30;49.10;;;;;;4969416;28;20432;-62
2021/10/01 12:57:49;;;;;;;3.83;2.67;;;23.20;47.50;;;;;;4963402;28;20476;-61
2021/10/01 13:00:16;;;;;;;7.10;3.07;;;23.10;48.20;;;;;;4963800;28;20448;-61
2021/10/01 13:03:01;;;;;;;5.03;2.73;;;23.20;48.40;;;;;;4957544;28;20515;-62
2021/10/01 13:05:33;;;;;;;8.80;2.83;;;23.20;48.20;;;;;;4967566;28;20434;-61
2021/10/01 13:08:00;;;;;;;10.37;3.70;;;23.10;47.10;;;;;;4966461;28;21037;-61
2021/10/01 13:10:38;;;;;;;5.93;3.23;;;23.10;48.20;;;;;;4966461;28;21008;-62
2021/10/01 13:13:07;;;;;;;3.43;2.57;;;23.20;47.50;;;;;;4952377;28;20439;-62
2021/10/01 13:15:45;;;;;;;4.67;2.53;;;23.20;48.30;;;;;;4972205;28;20492;-60
2021/10/01 13:18:17;;;;;;;5.50;2.80;;;23.30;48.00;;;;;;4963887;28;21008;-62
2021/10/01 13:21:01;;;;;;;5.83;3.33;;;23.40;48.10;;;;;;4965104;28;20436;-62
2021/10/01 13:23:36;;;;;;;4.60;2.90;;;23.50;48.10;;;;;;4962061;28;20459;-63
2021/10/01 13:26:24;;;;;;;4.23;2.77;;;23.60;48.20;;;;;;4965819;28;20433;-62
2021/10/01 13:29:03;;;;;;;5.13;2.90;;;23.70;47.80;;;;;;4946107;28;21136;-62
2021/10/01 13:31:31;;;;;;;4.13;2.83;;;23.80;47.80;;;;;;4959087;28;20429;-62
2021/10/01 13:33:58;;;;;;;2.77;2.43;;;23.80;47.80;;;;;;4975209;28;20433;-61
2021/10/01 13:36:24;;;;;;;7.27;3.07;;;23.90;47.90;;;;;;4968681;28;20465;-60
2021/10/01 13:38:51;;;;;;;7.57;2.57;;;23.90;48.10;;;;;;4967508;28;20498;-62
2021/10/01 13:41:19;;;;;;;5.60;3.00;;;24.10;48.20;;;;;;4960807;28;20527;-63
2021/10/01 13:43:46;;;;;;;4.93;3.03;;;24.10;47.90;;;;;;4944608;28;20433;-62
2021/10/01 13:46:14;;;;;;;6.83;3.37;;;24.20;48.10;;;;;;4940165;28;20452;-62
2021/10/01 13:48:40;;;;;;;5.77;3.83;;;24.30;48.10;;;;;;4960921;28;20433;-61
2021/10/01 13:51:06;;;;;;;5.13;2.90;;;24.40;47.20;;;;;;4964077;28;21018;-63
2021/10/01 13:53:33;;;;;;;8.03;3.80;;;24.50;46.90;;;;;;4962321;28;20503;-62
2021/10/01 13:55:58;;;;;;;10.57;3.33;;;24.60;46.40;;;;;;4960271;28;20475;-59
2021/10/01 13:58:25;;;;;;;3.90;2.80;;;24.60;45.60;;;;;;4959737;28;20429;-61
2021/10/01 14:00:53;;;;;;;9.40;3.20;;;24.50;46.00;;;;;;4963836;28;20206;-61
2021/10/01 14:03:21;;;;;;;5.17;2.80;;;24.50;46.00;;;;;;4962208;28;20898;-60
2021/10/01 14:05:48;;;;;;;5.83;3.10;;;24.40;45.60;;;;;;4961282;28;20525;-61
2021/10/01 14:08:13;;;;;;;8.67;3.10;;;24.40;47.00;;;;;;4958827;28;20556;-60
2021/10/01 14:10:39;;;;;;;4.80;2.93;;;24.40;47.30;;;;;;4958713;28;20457;-60
2021/10/01 14:13:07;;;;;;;5.80;3.13;;;24.50;47.30;;;;;;4963512;28;20572;-61
2021/10/01 14:15:34;;;;;;;7.80;3.30;;;24.60;46.40;;;;;;4965600;28;20178;-61
2021/10/01 14:17:59;;;;;;;7.33;3.23;;;24.50;46.40;;;;;;4963365;28;20452;-60
2021/10/01 14:20:28;;;;;;;6.30;3.30;;;24.60;46.30;;;;;;4968566;28;20444;-62
2021/10/01 14:22:54;;;;;;;4.83;2.60;;;24.60;46.40;;;;;;4969143;28;20189;-60
2021/10/01 14:25:22;;;;;;;4.80;2.70;;;24.70;47.50;;;;;;4933350;28;20457;-61
2021/10/01 14:27:49;;;;;;;4.13;2.87;;;24.90;47.80;;;;;;4969653;28;20977;-60
2021/10/01 14:30:17;;;;;;;5.03;3.63;;;25.10;47.00;;;;;;4968095;28;20464;-61
2021/10/01 14:32:43;;;;;;;6.37;3.37;;;25.20;45.80;;;;;;4970329;28;20466;-61
2021/10/01 14:35:10;;;;;;;6.33;2.83;;;25.40;45.50;;;;;;4963488;28;20421;-61
2021/10/01 14:37:37;;;;;;;4.70;3.10;;;25.50;45.70;;;;;;4952928;28;20233;-62
2021/10/01 14:40:05;;;;;;;8.50;2.87;;;25.70;45.30;;;;;;4970155;28;20429;-61